Aeroporto :







RITROVATECI SU...

 
LOGIN :

Iscrizione | Disclaimer

   EN    FR    IT 

 









Sommario :    VFR   VFR Marginale   IFR   IFR Intensivo   IFR Molto Intensivo
Visibilità : 
Base nubi : 
>= 8 km
>= 3000ft
5 / 8 km
1000 / 3000 ft
1500m / 5 km
500 / 1000 ft
800 / 1500m
200 / 500 ft
< 800m
< 200 ft
Simboli :   Temporali  Nebbia  Neve Forte  Precipitazioni Forti  Vento > 20 kt






- Altitudine del aeroporto : 21 ft
- Codice IATA : YVM


CYVM - Qikiqtarjuac

ULTIMO METAR :
  • 250600Z AUTO 21011KT 9SM CLR M29/M33 A3014 RMK SLP207

METARs OBSOLETI :
  • 250500Z AUTO 21009KT 9SM CLR M29/M34 A3013 RMK SLP205
  • 250400Z AUTO 20011KT 9SM CLR M30/M33 A3012 RMK SLP203

TAF TAF CYVM
Valido dal 25 a 01 ore il 25 a 13 ore UTC


250038Z 2501/2513 19008KT P6SM FEW040
TEMPO 2501/2507 P6SM -SN BKN040 RMK FCST BASED ON AUTO OBS. NXT FCST BY 250700Z



MetMap, La meteo Aeronautica in un colpo d'occhio ! - Copyright ORBIFLY Dicembre 2007 - Disclaimer

ORBIFLY MET'MAP TEAM :

Programmazione e sviluppo : Alexandra Zaïnal
Concezione : Baudouin d'Aumeries
Aiuto per la programmazione : Marc-Olivier Méhu
Supporto tecnico e logistico : Manuel Goepfert
Aiuto per la traduzione : Arnaldo La Scala

Contatto : metmap@orbifly.com




FONTI E CREDITI :

   NOAA